EGPC

Wick Airport

Wick, United Kingdom
METAR EGPC 180820Z VRB01KT 9999 FEW040 04/02 Q1022
Observed Flight Rules
Dec-18 @ 08:20 UTC (24 minutes ago) Visual Flight Rules
Wind Visibility Clouds
Variable at 1 knots 10,000+ meters
  • Few at 4,000' AGL
Temperatures Readings
Current 4°C / 39°F
Dewpoint 2°C / 36°F
Humidity 87%
Altimeter 30.18" Hg
Pressure 1022 hPa
Elevation 39
METAR EGPC 180820Z VRB01KT 9999 FEW040 04/02 Q1022
Observed Flight Rules
Dec-18 @ 08:20 UTC
(24 minutes ago)
VFR
Wind Visibility
Variable at 1 knots 10,000+ meters
Clouds
  • Few at 4,000' AGL
Temperature Dewpoint
4°C / 39°F 2°C / 36°F
Humidity Altimeter Pressure
87% 30.18" Hg 1022 hPa